Terminal Aerodrome Forecast
Issued by NWS Mt. Holly, NJ

Home | Current Version | Previous Version | Text Only | Print | Product List | Glossary On
Versions: 1 2 3 4 5 6 7 8 9 10 11 12 13 14 15 16 17 18 19 20 21 22 23 24 25 26 27 28
000
FTUS41 KPHI 050322 AAA
TAFACY
TAF AMD
KACY 050322Z 0503/0524 34005KT 1/2SM -RA FG OVC010
     FM050800 34008KT 2SM -RAPL BR OVC005
     FM051100 35012G20KT 1SM -SNPL OVC005
     FM051500 36012G20KT 1/2SM SN VV003
     FM052200 35010KT P6SM OVC020=

USA.gov is the U.S. government's official web portal to all federal, state and local government web resources and services.